sensor_id;sensor_type;location;lat;lon;timestamp;P1;durP1;ratioP1;P2;durP2;ratioP2
43580;SDS011;29175;51.030;4.606;2022-11-04T00:00:50;7.82;;;3.38;;
43580;SDS011;29175;51.030;4.606;2022-11-04T00:03:16;9.55;;;3.33;;
43580;SDS011;29175;51.030;4.606;2022-11-04T00:05:42;10.65;;;3.55;;
43580;SDS011;29175;51.030;4.606;2022-11-04T00:08:07;10.50;;;3.40;;
43580;SDS011;29175;51.030;4.606;2022-11-04T00:10:52;17.33;;;3.85;;
43580;SDS011;29175;51.030;4.606;2022-11-04T00:13:37;10.30;;;3.83;;
43580;SDS011;29175;51.030;4.606;2022-11-04T00:16:03;7.25;;;3.05;;
43580;SDS011;29175;51.030;4.606;2022-11-04T00:18:47;14.50;;;3.40;;
43580;SDS011;29175;51.030;4.606;2022-11-04T00:21:14;9.27;;;2.97;;
43580;SDS011;29175;51.030;4.606;2022-11-04T00:24:09;10.98;;;3.40;;
43580;SDS011;29175;51.030;4.606;2022-11-04T00:27:17;8.25;;;3.10;;
43580;SDS011;29175;51.030;4.606;2022-11-04T00:30:03;9.20;;;3.88;;
43580;SDS011;29175;51.030;4.606;2022-11-04T00:32:32;10.65;;;2.97;;
43580;SDS011;29175;51.030;4.606;2022-11-04T00:35:16;9.68;;;2.80;;
43580;SDS011;29175;51.030;4.606;2022-11-04T00:37:43;13.35;;;3.13;;
43580;SDS011;29175;51.030;4.606;2022-11-04T00:40:10;11.98;;;2.75;;
43580;SDS011;29175;51.030;4.606;2022-11-04T00:42:38;5.10;;;2.80;;
43580;SDS011;29175;51.030;4.606;2022-11-04T00:45:04;7.65;;;2.40;;
43580;SDS011;29175;51.030;4.606;2022-11-04T00:47:31;11.90;;;3.15;;
43580;SDS011;29175;51.030;4.606;2022-11-04T00:49:57;9.82;;;3.13;;
43580;SDS011;29175;51.030;4.606;2022-11-04T00:52:22;12.48;;;3.35;;
43580;SDS011;29175;51.030;4.606;2022-11-04T00:54:48;9.80;;;2.78;;
43580;SDS011;29175;51.030;4.606;2022-11-04T00:57:14;5.75;;;2.45;;
43580;SDS011;29175;51.030;4.606;2022-11-04T00:59:40;8.95;;;2.65;;
43580;SDS011;29175;51.030;4.606;2022-11-04T01:02:06;6.65;;;2.47;;
43580;SDS011;29175;51.030;4.606;2022-11-04T01:04:33;4.93;;;2.03;;
43580;SDS011;29175;51.030;4.606;2022-11-04T01:06:59;10.95;;;2.67;;
43580;SDS011;29175;51.030;4.606;2022-11-04T01:09:25;5.68;;;2.10;;
43580;SDS011;29175;51.030;4.606;2022-11-04T01:11:51;6.93;;;2.70;;
43580;SDS011;29175;51.030;4.606;2022-11-04T01:14:16;10.27;;;2.85;;
43580;SDS011;29175;51.030;4.606;2022-11-04T01:16:42;7.38;;;2.28;;
43580;SDS011;29175;51.030;4.606;2022-11-04T01:19:08;11.98;;;2.55;;
43580;SDS011;29175;51.030;4.606;2022-11-04T01:21:34;5.60;;;2.15;;
43580;SDS011;29175;51.030;4.606;2022-11-04T01:24:00;6.93;;;2.55;;
43580;SDS011;29175;51.030;4.606;2022-11-04T01:26:27;9.48;;;2.20;;
43580;SDS011;29175;51.030;4.606;2022-11-04T01:28:54;10.93;;;2.40;;
43580;SDS011;29175;51.030;4.606;2022-11-04T01:31:22;8.93;;;2.58;;
43580;SDS011;29175;51.030;4.606;2022-11-04T01:33:50;11.30;;;2.23;;
43580;SDS011;29175;51.030;4.606;2022-11-04T01:36:17;5.22;;;1.90;;
43580;SDS011;29175;51.030;4.606;2022-11-04T01:38:43;7.45;;;2.20;;
43580;SDS011;29175;51.030;4.606;2022-11-04T01:41:31;7.70;;;2.90;;
43580;SDS011;29175;51.030;4.606;2022-11-04T01:44:44;8.55;;;2.13;;
43580;SDS011;29175;51.030;4.606;2022-11-04T01:47:16;10.38;;;2.08;;
43580;SDS011;29175;51.030;4.606;2022-11-04T01:50:15;4.55;;;2.17;;
43580;SDS011;29175;51.030;4.606;2022-11-04T01:52:49;4.85;;;1.95;;
43580;SDS011;29175;51.030;4.606;2022-11-04T01:55:22;8.23;;;2.13;;
43580;SDS011;29175;51.030;4.606;2022-11-04T01:57:55;6.43;;;1.98;;
43580;SDS011;29175;51.030;4.606;2022-11-04T02:00:25;5.50;;;1.98;;
43580;SDS011;29175;51.030;4.606;2022-11-04T02:05:24;7.25;;;2.50;;
43580;SDS011;29175;51.030;4.606;2022-11-04T02:07:52;6.57;;;2.20;;
43580;SDS011;29175;51.030;4.606;2022-11-04T02:10:21;10.52;;;3.05;;
43580;SDS011;29175;51.030;4.606;2022-11-04T02:12:49;8.48;;;2.47;;
43580;SDS011;29175;51.030;4.606;2022-11-04T02:20:36;10.10;;;2.40;;
43580;SDS011;29175;51.030;4.606;2022-11-04T02:31:29;9.85;;;2.35;;
43580;SDS011;29175;51.030;4.606;2022-11-04T02:33:59;11.25;;;2.70;;
43580;SDS011;29175;51.030;4.606;2022-11-04T02:42:20;11.00;;;2.78;;
43580;SDS011;29175;51.030;4.606;2022-11-04T02:47:28;12.40;;;2.80;;
43580;SDS011;29175;51.030;4.606;2022-11-04T02:50:00;6.72;;;2.85;;
43580;SDS011;29175;51.030;4.606;2022-11-04T02:52:47;13.90;;;3.08;;
43580;SDS011;29175;51.030;4.606;2022-11-04T02:55:23;5.70;;;2.20;;
43580;SDS011;29175;51.030;4.606;2022-11-04T02:58:01;8.75;;;2.50;;
43580;SDS011;29175;51.030;4.606;2022-11-04T03:00:33;8.40;;;2.65;;
43580;SDS011;29175;51.030;4.606;2022-11-04T03:03:03;7.55;;;2.58;;
43580;SDS011;29175;51.030;4.606;2022-11-04T03:05:35;15.40;;;3.05;;
43580;SDS011;29175;51.030;4.606;2022-11-04T03:08:06;10.27;;;2.70;;
43580;SDS011;29175;51.030;4.606;2022-11-04T03:10:42;11.88;;;3.13;;
43580;SDS011;29175;51.030;4.606;2022-11-04T03:13:13;14.38;;;3.03;;
43580;SDS011;29175;51.030;4.606;2022-11-04T03:15:51;9.02;;;2.90;;
43580;SDS011;29175;51.030;4.606;2022-11-04T03:21:21;13.48;;;3.00;;
43580;SDS011;29175;51.030;4.606;2022-11-04T03:23:48;13.90;;;2.85;;
43580;SDS011;29175;51.030;4.606;2022-11-04T03:26:18;11.15;;;3.00;;
43580;SDS011;29175;51.030;4.606;2022-11-04T03:31:45;10.65;;;2.67;;
43580;SDS011;29175;51.030;4.606;2022-11-04T03:34:25;6.97;;;2.53;;
43580;SDS011;29175;51.030;4.606;2022-11-04T03:36:51;11.38;;;3.00;;
43580;SDS011;29175;51.030;4.606;2022-11-04T03:39:17;7.28;;;2.80;;
43580;SDS011;29175;51.030;4.606;2022-11-04T03:41:44;7.53;;;2.92;;
43580;SDS011;29175;51.030;4.606;2022-11-04T03:44:14;10.07;;;2.97;;
43580;SDS011;29175;51.030;4.606;2022-11-04T03:46:40;14.23;;;3.33;;
43580;SDS011;29175;51.030;4.606;2022-11-04T03:49:08;9.18;;;3.17;;
43580;SDS011;29175;51.030;4.606;2022-11-04T03:51:35;15.90;;;3.00;;
43580;SDS011;29175;51.030;4.606;2022-11-04T03:54:01;14.27;;;3.30;;
43580;SDS011;29175;51.030;4.606;2022-11-04T04:01:49;7.05;;;2.42;;
43580;SDS011;29175;51.030;4.606;2022-11-04T04:04:24;9.93;;;3.00;;
43580;SDS011;29175;51.030;4.606;2022-11-04T04:07:03;15.00;;;2.80;;
43580;SDS011;29175;51.030;4.606;2022-11-04T04:10:25;8.95;;;2.97;;
43580;SDS011;29175;51.030;4.606;2022-11-04T04:15:20;12.68;;;3.20;;
43580;SDS011;29175;51.030;4.606;2022-11-04T04:17:54;9.48;;;3.15;;
43580;SDS011;29175;51.030;4.606;2022-11-04T04:20:23;13.23;;;3.75;;
43580;SDS011;29175;51.030;4.606;2022-11-04T04:22:53;13.90;;;2.78;;
43580;SDS011;29175;51.030;4.606;2022-11-04T04:25:23;13.70;;;3.53;;
43580;SDS011;29175;51.030;4.606;2022-11-04T04:28:09;8.90;;;2.80;;
43580;SDS011;29175;51.030;4.606;2022-11-04T04:30:39;8.70;;;3.20;;
43580;SDS011;29175;51.030;4.606;2022-11-04T04:33:07;10.90;;;4.03;;
43580;SDS011;29175;51.030;4.606;2022-11-04T04:35:43;14.75;;;3.08;;
43580;SDS011;29175;51.030;4.606;2022-11-04T04:41:17;12.07;;;3.33;;
43580;SDS011;29175;51.030;4.606;2022-11-04T04:44:08;12.02;;;3.05;;
43580;SDS011;29175;51.030;4.606;2022-11-04T04:47:04;11.43;;;2.88;;
43580;SDS011;29175;51.030;4.606;2022-11-04T04:49:32;10.20;;;3.00;;
43580;SDS011;29175;51.030;4.606;2022-11-04T04:52:02;10.60;;;3.08;;
43580;SDS011;29175;51.030;4.606;2022-11-04T04:54:31;8.68;;;3.15;;
43580;SDS011;29175;51.030;4.606;2022-11-04T04:56:56;10.88;;;3.00;;
43580;SDS011;29175;51.030;4.606;2022-11-04T04:59:22;7.50;;;2.70;;
43580;SDS011;29175;51.030;4.606;2022-11-04T05:01:48;11.07;;;3.03;;
43580;SDS011;29175;51.030;4.606;2022-11-04T05:04:13;11.05;;;3.20;;
43580;SDS011;29175;51.030;4.606;2022-11-04T05:06:39;7.43;;;2.50;;
43580;SDS011;29175;51.030;4.606;2022-11-04T05:09:05;7.78;;;3.20;;
43580;SDS011;29175;51.030;4.606;2022-11-04T05:11:30;7.40;;;2.70;;
43580;SDS011;29175;51.030;4.606;2022-11-04T05:13:56;10.60;;;3.03;;
43580;SDS011;29175;51.030;4.606;2022-11-04T05:16:22;10.43;;;3.10;;
43580;SDS011;29175;51.030;4.606;2022-11-04T05:18:50;17.17;;;3.25;;
43580;SDS011;29175;51.030;4.606;2022-11-04T05:21:16;10.10;;;3.45;;
43580;SDS011;29175;51.030;4.606;2022-11-04T05:23:42;8.95;;;3.10;;
43580;SDS011;29175;51.030;4.606;2022-11-04T05:26:08;9.48;;;3.00;;
43580;SDS011;29175;51.030;4.606;2022-11-04T05:28:34;9.68;;;3.35;;
43580;SDS011;29175;51.030;4.606;2022-11-04T05:31:04;16.77;;;3.65;;
43580;SDS011;29175;51.030;4.606;2022-11-04T05:33:30;11.05;;;3.45;;
43580;SDS011;29175;51.030;4.606;2022-11-04T05:38:31;7.25;;;2.88;;
43580;SDS011;29175;51.030;4.606;2022-11-04T05:40:57;9.52;;;3.28;;
43580;SDS011;29175;51.030;4.606;2022-11-04T05:43:23;7.75;;;3.10;;
43580;SDS011;29175;51.030;4.606;2022-11-04T05:45:48;7.55;;;3.28;;
43580;SDS011;29175;51.030;4.606;2022-11-04T05:48:14;7.00;;;3.05;;
43580;SDS011;29175;51.030;4.606;2022-11-04T05:50:40;9.68;;;3.20;;
43580;SDS011;29175;51.030;4.606;2022-11-04T05:53:06;10.13;;;3.28;;
43580;SDS011;29175;51.030;4.606;2022-11-04T05:55:32;8.82;;;3.15;;
43580;SDS011;29175;51.030;4.606;2022-11-04T05:57:58;9.82;;;3.08;;
43580;SDS011;29175;51.030;4.606;2022-11-04T06:00:25;11.20;;;3.20;;
43580;SDS011;29175;51.030;4.606;2022-11-04T06:02:51;8.88;;;3.55;;
43580;SDS011;29175;51.030;4.606;2022-11-04T06:05:17;8.35;;;2.50;;
43580;SDS011;29175;51.030;4.606;2022-11-04T06:07:43;10.88;;;3.33;;
43580;SDS011;29175;51.030;4.606;2022-11-04T06:10:09;9.48;;;3.60;;
43580;SDS011;29175;51.030;4.606;2022-11-04T06:12:36;11.45;;;3.20;;
43580;SDS011;29175;51.030;4.606;2022-11-04T06:15:01;9.32;;;3.42;;
43580;SDS011;29175;51.030;4.606;2022-11-04T06:17:27;10.23;;;3.42;;
43580;SDS011;29175;51.030;4.606;2022-11-04T06:19:53;13.02;;;3.40;;
43580;SDS011;29175;51.030;4.606;2022-11-04T06:22:19;10.55;;;3.63;;
43580;SDS011;29175;51.030;4.606;2022-11-04T06:24:45;13.77;;;3.88;;
43580;SDS011;29175;51.030;4.606;2022-11-04T06:27:10;11.27;;;3.22;;
43580;SDS011;29175;51.030;4.606;2022-11-04T06:29:37;9.20;;;3.28;;
43580;SDS011;29175;51.030;4.606;2022-11-04T06:32:16;13.20;;;3.45;;
43580;SDS011;29175;51.030;4.606;2022-11-04T06:34:43;6.60;;;3.10;;
43580;SDS011;29175;51.030;4.606;2022-11-04T06:37:09;10.50;;;3.25;;
43580;SDS011;29175;51.030;4.606;2022-11-04T06:39:35;9.48;;;2.90;;
43580;SDS011;29175;51.030;4.606;2022-11-04T06:42:01;9.85;;;3.33;;
43580;SDS011;29175;51.030;4.606;2022-11-04T06:44:27;8.38;;;2.75;;
43580;SDS011;29175;51.030;4.606;2022-11-04T06:46:53;14.95;;;3.70;;
43580;SDS011;29175;51.030;4.606;2022-11-04T06:49:19;8.10;;;4.00;;
43580;SDS011;29175;51.030;4.606;2022-11-04T06:51:47;9.45;;;3.40;;
43580;SDS011;29175;51.030;4.606;2022-11-04T06:54:14;9.48;;;3.58;;
43580;SDS011;29175;51.030;4.606;2022-11-04T06:56:40;8.57;;;4.25;;
43580;SDS011;29175;51.030;4.606;2022-11-04T06:59:06;16.63;;;5.28;;
43580;SDS011;29175;51.030;4.606;2022-11-04T07:01:34;13.98;;;4.65;;
43580;SDS011;29175;51.030;4.606;2022-11-04T07:04:01;10.05;;;4.43;;
43580;SDS011;29175;51.030;4.606;2022-11-04T07:06:29;11.52;;;4.28;;
43580;SDS011;29175;51.030;4.606;2022-11-04T07:08:56;13.35;;;4.55;;
43580;SDS011;29175;51.030;4.606;2022-11-04T07:11:23;11.45;;;4.18;;
43580;SDS011;29175;51.030;4.606;2022-11-04T07:13:50;14.63;;;4.28;;
43580;SDS011;29175;51.030;4.606;2022-11-04T07:16:16;11.95;;;4.05;;
43580;SDS011;29175;51.030;4.606;2022-11-04T07:18:42;12.05;;;3.60;;
43580;SDS011;29175;51.030;4.606;2022-11-04T07:21:08;13.75;;;4.28;;
43580;SDS011;29175;51.030;4.606;2022-11-04T07:23:35;8.85;;;4.05;;
43580;SDS011;29175;51.030;4.606;2022-11-04T07:26:01;14.35;;;3.97;;
43580;SDS011;29175;51.030;4.606;2022-11-04T07:28:28;10.77;;;3.90;;
43580;SDS011;29175;51.030;4.606;2022-11-04T07:30:55;11.93;;;3.90;;
43580;SDS011;29175;51.030;4.606;2022-11-04T07:33:22;10.57;;;4.32;;
43580;SDS011;29175;51.030;4.606;2022-11-04T07:35:47;11.90;;;3.90;;
43580;SDS011;29175;51.030;4.606;2022-11-04T07:38:13;12.23;;;3.65;;
43580;SDS011;29175;51.030;4.606;2022-11-04T07:40:39;14.63;;;4.63;;
43580;SDS011;29175;51.030;4.606;2022-11-04T07:43:04;13.27;;;3.92;;
43580;SDS011;29175;51.030;4.606;2022-11-04T07:45:31;15.00;;;3.95;;
43580;SDS011;29175;51.030;4.606;2022-11-04T07:47:57;9.50;;;3.45;;
43580;SDS011;29175;51.030;4.606;2022-11-04T07:50:23;13.73;;;3.80;;
43580;SDS011;29175;51.030;4.606;2022-11-04T07:52:49;12.63;;;3.70;;
43580;SDS011;29175;51.030;4.606;2022-11-04T07:55:16;15.00;;;4.20;;
43580;SDS011;29175;51.030;4.606;2022-11-04T07:57:45;9.00;;;3.28;;
43580;SDS011;29175;51.030;4.606;2022-11-04T08:00:13;8.95;;;4.18;;
43580;SDS011;29175;51.030;4.606;2022-11-04T08:02:40;16.00;;;4.10;;
43580;SDS011;29175;51.030;4.606;2022-11-04T08:05:08;10.48;;;3.60;;
43580;SDS011;29175;51.030;4.606;2022-11-04T08:07:34;13.68;;;3.92;;
43580;SDS011;29175;51.030;4.606;2022-11-04T08:10:00;15.68;;;4.47;;
43580;SDS011;29175;51.030;4.606;2022-11-04T08:12:26;12.32;;;4.30;;
43580;SDS011;29175;51.030;4.606;2022-11-04T08:14:52;7.13;;;3.78;;
43580;SDS011;29175;51.030;4.606;2022-11-04T08:17:18;8.73;;;3.90;;
43580;SDS011;29175;51.030;4.606;2022-11-04T08:19:45;9.70;;;3.80;;
43580;SDS011;29175;51.030;4.606;2022-11-04T08:22:10;16.58;;;3.90;;
43580;SDS011;29175;51.030;4.606;2022-11-04T08:24:36;10.73;;;3.50;;
43580;SDS011;29175;51.030;4.606;2022-11-04T08:27:03;12.05;;;4.43;;
43580;SDS011;29175;51.030;4.606;2022-11-04T08:29:32;9.18;;;4.00;;
43580;SDS011;29175;51.030;4.606;2022-11-04T08:32:00;14.60;;;4.47;;
43580;SDS011;29175;51.030;4.606;2022-11-04T08:34:27;15.80;;;4.13;;
43580;SDS011;29175;51.030;4.606;2022-11-04T08:36:52;14.38;;;4.22;;
43580;SDS011;29175;51.030;4.606;2022-11-04T08:39:21;13.73;;;4.05;;
43580;SDS011;29175;51.030;4.606;2022-11-04T08:41:47;11.20;;;4.30;;
43580;SDS011;29175;51.030;4.606;2022-11-04T08:44:14;15.27;;;4.78;;
43580;SDS011;29175;51.030;4.606;2022-11-04T08:46:41;13.63;;;3.90;;
43580;SDS011;29175;51.030;4.606;2022-11-04T08:49:09;15.60;;;4.50;;
43580;SDS011;29175;51.030;4.606;2022-11-04T08:51:36;7.20;;;4.00;;
43580;SDS011;29175;51.030;4.606;2022-11-04T08:54:05;10.83;;;4.07;;
43580;SDS011;29175;51.030;4.606;2022-11-04T08:56:31;13.32;;;4.57;;
43580;SDS011;29175;51.030;4.606;2022-11-04T08:59:00;12.73;;;4.28;;
43580;SDS011;29175;51.030;4.606;2022-11-04T09:01:26;16.85;;;4.30;;
43580;SDS011;29175;51.030;4.606;2022-11-04T09:03:53;17.20;;;4.60;;
43580;SDS011;29175;51.030;4.606;2022-11-04T09:06:21;14.45;;;4.38;;
43580;SDS011;29175;51.030;4.606;2022-11-04T09:08:48;13.23;;;4.93;;
43580;SDS011;29175;51.030;4.606;2022-11-04T09:11:15;19.50;;;4.43;;
43580;SDS011;29175;51.030;4.606;2022-11-04T09:13:43;12.93;;;3.92;;
43580;SDS011;29175;51.030;4.606;2022-11-04T09:16:11;12.95;;;4.10;;
43580;SDS011;29175;51.030;4.606;2022-11-04T09:18:38;15.27;;;4.90;;
43580;SDS011;29175;51.030;4.606;2022-11-04T09:21:04;12.63;;;4.35;;
43580;SDS011;29175;51.030;4.606;2022-11-04T09:23:32;7.65;;;4.00;;
43580;SDS011;29175;51.030;4.606;2022-11-04T09:26:02;7.70;;;3.38;;
43580;SDS011;29175;51.030;4.606;2022-11-04T09:28:33;10.52;;;3.67;;
43580;SDS011;29175;51.030;4.606;2022-11-04T09:31:03;10.45;;;4.00;;
43580;SDS011;29175;51.030;4.606;2022-11-04T09:33:29;12.43;;;4.22;;
43580;SDS011;29175;51.030;4.606;2022-11-04T09:35:55;9.65;;;3.80;;
43580;SDS011;29175;51.030;4.606;2022-11-04T09:38:22;13.77;;;4.30;;
43580;SDS011;29175;51.030;4.606;2022-11-04T09:40:49;12.20;;;3.85;;
43580;SDS011;29175;51.030;4.606;2022-11-04T09:46:07;15.40;;;4.20;;
43580;SDS011;29175;51.030;4.606;2022-11-04T09:48:38;19.48;;;4.72;;
43580;SDS011;29175;51.030;4.606;2022-11-04T09:51:07;11.60;;;4.25;;
43580;SDS011;29175;51.030;4.606;2022-11-04T09:53:40;10.95;;;4.47;;
43580;SDS011;29175;51.030;4.606;2022-11-04T09:58:45;10.15;;;3.90;;
43580;SDS011;29175;51.030;4.606;2022-11-04T10:01:17;15.65;;;4.43;;
43580;SDS011;29175;51.030;4.606;2022-11-04T10:25:48;16.13;;;4.80;;
43580;SDS011;29175;51.030;4.606;2022-11-04T10:28:32;16.88;;;4.32;;
43580;SDS011;29175;51.030;4.606;2022-11-04T10:31:03;13.77;;;4.78;;
43580;SDS011;29175;51.030;4.606;2022-11-04T10:33:34;16.33;;;4.78;;
43580;SDS011;29175;51.030;4.606;2022-11-04T10:36:16;16.92;;;4.60;;
43580;SDS011;29175;51.030;4.606;2022-11-04T10:38:47;9.98;;;4.70;;
43580;SDS011;29175;51.030;4.606;2022-11-04T10:43:45;15.25;;;4.63;;
43580;SDS011;29175;51.030;4.606;2022-11-04T10:51:30;10.13;;;5.05;;
43580;SDS011;29175;51.030;4.606;2022-11-04T12:47:52;26.88;;;12.55;;
43580;SDS011;29175;51.030;4.606;2022-11-04T12:53:14;37.40;;;14.93;;
43580;SDS011;29175;51.030;4.606;2022-11-04T12:56:19;30.95;;;14.57;;
43580;SDS011;29175;51.030;4.606;2022-11-04T13:01:58;41.45;;;16.38;;
43580;SDS011;29175;51.030;4.606;2022-11-04T13:04:34;44.22;;;16.27;;
43580;SDS011;29175;51.030;4.606;2022-11-04T13:07:11;49.53;;;18.08;;
43580;SDS011;29175;51.030;4.606;2022-11-04T13:09:46;42.83;;;18.13;;
43580;SDS011;29175;51.030;4.606;2022-11-04T13:14:59;48.70;;;19.97;;
43580;SDS011;29175;51.030;4.606;2022-11-04T13:17:39;44.15;;;18.67;;
43580;SDS011;29175;51.030;4.606;2022-11-04T13:22:43;51.22;;;19.65;;
43580;SDS011;29175;51.030;4.606;2022-11-04T13:25:27;47.53;;;19.58;;
43580;SDS011;29175;51.030;4.606;2022-11-04T13:27:58;38.78;;;17.65;;
43580;SDS011;29175;51.030;4.606;2022-11-04T13:30:32;42.53;;;17.35;;
43580;SDS011;29175;51.030;4.606;2022-11-04T13:33:10;42.05;;;16.00;;
43580;SDS011;29175;51.030;4.606;2022-11-04T13:38:18;46.88;;;15.73;;
43580;SDS011;29175;51.030;4.606;2022-11-04T13:49:00;34.92;;;14.95;;
43580;SDS011;29175;51.030;4.606;2022-11-04T13:51:42;35.28;;;14.60;;
43580;SDS011;29175;51.030;4.606;2022-11-04T13:54:26;31.35;;;14.00;;
43580;SDS011;29175;51.030;4.606;2022-11-04T13:57:03;25.65;;;10.68;;
43580;SDS011;29175;51.030;4.606;2022-11-04T13:59:32;21.52;;;10.05;;
43580;SDS011;29175;51.030;4.606;2022-11-04T14:07:10;18.85;;;8.13;;
43580;SDS011;29175;51.030;4.606;2022-11-04T14:20:11;14.15;;;3.90;;
43580;SDS011;29175;51.030;4.606;2022-11-04T14:23:03;6.55;;;3.28;;
43580;SDS011;29175;51.030;4.606;2022-11-04T14:25:35;9.13;;;2.90;;
43580;SDS011;29175;51.030;4.606;2022-11-04T14:33:06;11.55;;;3.08;;
43580;SDS011;29175;51.030;4.606;2022-11-04T14:35:44;10.25;;;2.83;;
43580;SDS011;29175;51.030;4.606;2022-11-04T14:43:44;4.80;;;2.22;;
43580;SDS011;29175;51.030;4.606;2022-11-04T14:46:16;10.40;;;2.50;;
43580;SDS011;29175;51.030;4.606;2022-11-04T14:48:50;7.13;;;2.30;;
43580;SDS011;29175;51.030;4.606;2022-11-04T14:51:20;6.82;;;2.22;;
43580;SDS011;29175;51.030;4.606;2022-11-04T14:54:03;5.72;;;2.10;;
43580;SDS011;29175;51.030;4.606;2022-11-04T14:56:33;9.10;;;2.38;;
43580;SDS011;29175;51.030;4.606;2022-11-04T14:59:02;5.35;;;2.10;;
43580;SDS011;29175;51.030;4.606;2022-11-04T15:01:31;8.60;;;2.50;;
43580;SDS011;29175;51.030;4.606;2022-11-04T15:06:37;5.22;;;2.10;;
43580;SDS011;29175;51.030;4.606;2022-11-04T15:09:16;12.02;;;2.40;;
43580;SDS011;29175;51.030;4.606;2022-11-04T15:11:47;5.22;;;2.35;;
43580;SDS011;29175;51.030;4.606;2022-11-04T15:14:32;10.88;;;2.53;;
43580;SDS011;29175;51.030;4.606;2022-11-04T15:17:01;4.47;;;2.00;;
43580;SDS011;29175;51.030;4.606;2022-11-04T15:19:31;6.32;;;2.38;;
43580;SDS011;29175;51.030;4.606;2022-11-04T15:22:00;5.85;;;2.50;;
43580;SDS011;29175;51.030;4.606;2022-11-04T15:24:29;6.57;;;2.10;;
43580;SDS011;29175;51.030;4.606;2022-11-04T15:26:57;6.43;;;2.30;;
43580;SDS011;29175;51.030;4.606;2022-11-04T15:29:29;3.88;;;1.85;;
43580;SDS011;29175;51.030;4.606;2022-11-04T15:32:02;7.00;;;2.10;;
43580;SDS011;29175;51.030;4.606;2022-11-04T15:34:30;3.30;;;1.80;;
43580;SDS011;29175;51.030;4.606;2022-11-04T15:36:57;4.80;;;1.77;;
43580;SDS011;29175;51.030;4.606;2022-11-04T15:39:41;3.88;;;1.65;;
43580;SDS011;29175;51.030;4.606;2022-11-04T15:42:15;2.60;;;1.70;;
43580;SDS011;29175;51.030;4.606;2022-11-04T15:50:53;6.40;;;2.20;;
43580;SDS011;29175;51.030;4.606;2022-11-04T15:53:28;5.30;;;1.85;;
43580;SDS011;29175;51.030;4.606;2022-11-04T15:55:53;2.63;;;1.50;;
43580;SDS011;29175;51.030;4.606;2022-11-04T15:58:19;4.07;;;1.70;;
43580;SDS011;29175;51.030;4.606;2022-11-04T16:00:53;4.53;;;1.75;;
43580;SDS011;29175;51.030;4.606;2022-11-04T16:03:22;2.80;;;1.77;;
43580;SDS011;29175;51.030;4.606;2022-11-04T16:06:03;5.07;;;1.73;;
43580;SDS011;29175;51.030;4.606;2022-11-04T16:08:32;5.60;;;1.88;;
43580;SDS011;29175;51.030;4.606;2022-11-04T16:11:08;4.05;;;1.70;;
43580;SDS011;29175;51.030;4.606;2022-11-04T16:16:11;3.60;;;1.60;;
43580;SDS011;29175;51.030;4.606;2022-11-04T16:18:53;2.85;;;1.70;;
43580;SDS011;29175;51.030;4.606;2022-11-04T16:21:28;4.97;;;1.48;;
43580;SDS011;29175;51.030;4.606;2022-11-04T16:26:28;3.67;;;1.65;;
43580;SDS011;29175;51.030;4.606;2022-11-04T16:29:13;5.40;;;1.95;;
43580;SDS011;29175;51.030;4.606;2022-11-04T16:32:07;6.05;;;2.10;;
43580;SDS011;29175;51.030;4.606;2022-11-04T16:37:10;6.68;;;2.55;;
43580;SDS011;29175;51.030;4.606;2022-11-04T16:39:37;5.50;;;2.40;;
43580;SDS011;29175;51.030;4.606;2022-11-04T16:42:04;5.93;;;2.50;;
43580;SDS011;29175;51.030;4.606;2022-11-04T16:44:31;5.97;;;2.50;;
43580;SDS011;29175;51.030;4.606;2022-11-04T16:46:56;9.68;;;2.42;;
43580;SDS011;29175;51.030;4.606;2022-11-04T16:49:25;5.88;;;2.83;;
43580;SDS011;29175;51.030;4.606;2022-11-04T16:51:55;7.80;;;2.97;;
43580;SDS011;29175;51.030;4.606;2022-11-04T16:54:25;6.47;;;2.92;;
43580;SDS011;29175;51.030;4.606;2022-11-04T16:56:51;9.15;;;3.08;;
43580;SDS011;29175;51.030;4.606;2022-11-04T16:59:21;6.67;;;3.03;;
43580;SDS011;29175;51.030;4.606;2022-11-04T17:01:47;7.47;;;3.17;;
43580;SDS011;29175;51.030;4.606;2022-11-04T17:04:13;18.73;;;5.20;;
43580;SDS011;29175;51.030;4.606;2022-11-04T17:06:39;13.80;;;5.50;;
43580;SDS011;29175;51.030;4.606;2022-11-04T17:11:43;13.80;;;4.30;;
43580;SDS011;29175;51.030;4.606;2022-11-04T17:14:10;12.10;;;3.78;;
43580;SDS011;29175;51.030;4.606;2022-11-04T17:16:38;8.30;;;3.20;;
43580;SDS011;29175;51.030;4.606;2022-11-04T17:19:04;6.55;;;2.92;;
43580;SDS011;29175;51.030;4.606;2022-11-04T17:21:30;7.38;;;2.97;;
43580;SDS011;29175;51.030;4.606;2022-11-04T17:23:58;6.30;;;3.20;;
43580;SDS011;29175;51.030;4.606;2022-11-04T17:26:24;8.52;;;3.28;;
43580;SDS011;29175;51.030;4.606;2022-11-04T17:28:50;10.15;;;3.38;;
43580;SDS011;29175;51.030;4.606;2022-11-04T17:31:18;5.85;;;3.13;;
43580;SDS011;29175;51.030;4.606;2022-11-04T17:33:44;6.28;;;2.85;;
43580;SDS011;29175;51.030;4.606;2022-11-04T17:36:17;7.05;;;2.97;;
43580;SDS011;29175;51.030;4.606;2022-11-04T17:38:44;7.10;;;3.00;;
43580;SDS011;29175;51.030;4.606;2022-11-04T17:41:10;8.75;;;3.30;;
43580;SDS011;29175;51.030;4.606;2022-11-04T17:43:54;7.18;;;3.45;;
43580;SDS011;29175;51.030;4.606;2022-11-04T17:46:29;7.35;;;3.45;;
43580;SDS011;29175;51.030;4.606;2022-11-04T17:48:59;9.48;;;3.33;;
43580;SDS011;29175;51.030;4.606;2022-11-04T17:51:27;7.32;;;3.30;;
43580;SDS011;29175;51.030;4.606;2022-11-04T17:53:53;7.22;;;3.70;;
43580;SDS011;29175;51.030;4.606;2022-11-04T17:56:20;16.55;;;3.80;;
43580;SDS011;29175;51.030;4.606;2022-11-04T17:58:47;12.82;;;3.70;;
43580;SDS011;29175;51.030;4.606;2022-11-04T18:01:14;12.00;;;4.05;;
43580;SDS011;29175;51.030;4.606;2022-11-04T18:03:41;8.15;;;3.95;;
43580;SDS011;29175;51.030;4.606;2022-11-04T18:06:08;9.15;;;4.47;;
43580;SDS011;29175;51.030;4.606;2022-11-04T18:08:34;10.07;;;4.97;;
43580;SDS011;29175;51.030;4.606;2022-11-04T18:11:01;14.38;;;5.32;;
43580;SDS011;29175;51.030;4.606;2022-11-04T18:13:29;10.35;;;5.53;;
43580;SDS011;29175;51.030;4.606;2022-11-04T18:15:57;9.75;;;4.82;;
43580;SDS011;29175;51.030;4.606;2022-11-04T18:18:31;11.98;;;5.15;;
43580;SDS011;29175;51.030;4.606;2022-11-04T18:21:01;13.25;;;4.93;;
43580;SDS011;29175;51.030;4.606;2022-11-04T18:23:30;11.77;;;5.32;;
43580;SDS011;29175;51.030;4.606;2022-11-04T18:25:55;17.98;;;5.53;;
43580;SDS011;29175;51.030;4.606;2022-11-04T18:28:21;12.60;;;4.90;;
43580;SDS011;29175;51.030;4.606;2022-11-04T18:30:47;10.57;;;5.07;;
43580;SDS011;29175;51.030;4.606;2022-11-04T18:33:14;11.20;;;5.50;;
43580;SDS011;29175;51.030;4.606;2022-11-04T18:35:42;11.05;;;5.25;;
43580;SDS011;29175;51.030;4.606;2022-11-04T18:38:07;12.10;;;5.88;;
43580;SDS011;29175;51.030;4.606;2022-11-04T18:40:33;11.98;;;5.90;;
43580;SDS011;29175;51.030;4.606;2022-11-04T18:43:00;14.85;;;7.18;;
43580;SDS011;29175;51.030;4.606;2022-11-04T18:45:25;14.90;;;7.13;;
43580;SDS011;29175;51.030;4.606;2022-11-04T18:47:51;16.38;;;8.32;;
43580;SDS011;29175;51.030;4.606;2022-11-04T18:50:18;18.52;;;9.18;;
43580;SDS011;29175;51.030;4.606;2022-11-04T18:52:44;22.90;;;9.32;;
43580;SDS011;29175;51.030;4.606;2022-11-04T18:55:11;21.50;;;8.55;;
43580;SDS011;29175;51.030;4.606;2022-11-04T18:57:36;17.63;;;8.55;;
43580;SDS011;29175;51.030;4.606;2022-11-04T19:00:03;18.92;;;7.63;;
43580;SDS011;29175;51.030;4.606;2022-11-04T19:02:29;14.45;;;7.38;;
43580;SDS011;29175;51.030;4.606;2022-11-04T19:04:56;17.20;;;7.72;;
43580;SDS011;29175;51.030;4.606;2022-11-04T19:07:22;13.90;;;6.35;;
43580;SDS011;29175;51.030;4.606;2022-11-04T19:09:48;13.55;;;7.07;;
43580;SDS011;29175;51.030;4.606;2022-11-04T19:12:15;17.63;;;7.18;;
43580;SDS011;29175;51.030;4.606;2022-11-04T19:15:00;13.70;;;6.65;;
43580;SDS011;29175;51.030;4.606;2022-11-04T19:17:27;13.05;;;7.22;;